Terminal Aerodrome Forecast
Issued by NWS

Home | Current Version | Previous Version | Text Only | Print | Product List | Glossary On
Versions: 1 2 3 4 5 6 7 8 9 10 11 12 13 14 15 16 17 18
000
FTUS41 KPBZ 180538
TAFFKL
TAF
KFKL 180538Z 1806/1906 21006KT P6SM BKN008
     FM181400 22007KT P6SM BKN020
     FM181500 22007KT P6SM BKN040
     FM181900 24010G19KT P6SM SCT040
      AMD LTD TO CLD VIS AND WIND=

USA.gov is the U.S. government's official web portal to all federal, state and local government web resources and services.